createdAt,value
2016-08-19T00:00:22.789Z,0
2016-08-19T00:00:46.949Z,0
2016-08-19T00:01:11.066Z,0
2016-08-19T00:01:35.191Z,0
2016-08-19T00:01:59.291Z,0
2016-08-19T00:02:23.425Z,0
2016-08-19T00:02:47.523Z,0
2016-08-19T00:03:11.626Z,0
2016-08-19T00:03:35.737Z,0
2016-08-19T00:03:59.875Z,0
2016-08-19T00:04:24.006Z,0
2016-08-19T00:04:48.127Z,0
2016-08-19T00:05:12.223Z,0
2016-08-19T00:05:36.373Z,0
2016-08-19T00:06:00.490Z,0
2016-08-19T00:06:24.604Z,0
2016-08-19T00:06:48.719Z,0
2016-08-19T00:07:12.831Z,0
2016-08-19T00:07:36.955Z,0
2016-08-19T00:08:01.088Z,0
2016-08-19T00:08:25.204Z,0
2016-08-19T00:08:49.337Z,0
2016-08-19T00:09:13.447Z,0
2016-08-19T00:09:37.580Z,0
2016-08-19T00:10:01.717Z,0
2016-08-19T00:10:25.865Z,0
2016-08-19T00:10:49.989Z,0
2016-08-19T00:11:14.117Z,0
2016-08-19T00:11:38.245Z,0
2016-08-19T00:12:02.354Z,0
2016-08-19T00:12:26.522Z,0
2016-08-19T00:12:50.657Z,0
2016-08-19T00:13:14.771Z,0
2016-08-19T00:13:38.918Z,0
2016-08-19T00:14:03.047Z,0
2016-08-19T00:14:27.187Z,0
2016-08-19T00:14:51.315Z,0
2016-08-19T00:15:15.471Z,0
2016-08-19T00:15:39.583Z,0
2016-08-19T00:16:03.763Z,0
2016-08-19T00:16:27.876Z,0
2016-08-19T00:16:51.972Z,0
2016-08-19T00:17:16.082Z,0
2016-08-19T00:17:40.192Z,0
2016-08-19T00:18:04.290Z,0
2016-08-19T00:18:28.430Z,0
2016-08-19T00:18:52.565Z,0
2016-08-19T00:19:16.690Z,0
2016-08-19T00:19:40.810Z,0
2016-08-19T00:20:04.921Z,0
2016-08-19T00:20:29.141Z,0
2016-08-19T00:20:53.254Z,0
2016-08-19T00:21:17.372Z,0
2016-08-19T00:21:41.505Z,0
2016-08-19T00:22:05.614Z,0
2016-08-19T00:22:29.764Z,0
2016-08-19T00:22:53.899Z,0
2016-08-19T00:23:17.983Z,0
2016-08-19T00:23:42.128Z,0
2016-08-19T00:24:06.266Z,0
2016-08-19T00:24:30.395Z,0
2016-08-19T00:24:54.540Z,0
2016-08-19T00:25:18.673Z,0
2016-08-19T00:25:42.773Z,0
2016-08-19T00:26:06.902Z,0
2016-08-19T00:26:31.010Z,0
2016-08-19T00:26:55.110Z,0
2016-08-19T00:27:19.284Z,0
2016-08-19T00:27:43.394Z,0
2016-08-19T00:28:07.522Z,0
2016-08-19T00:28:31.625Z,0
2016-08-19T00:28:55.802Z,0
2016-08-19T00:29:19.925Z,0
2016-08-19T00:29:44.054Z,0
2016-08-19T00:30:08.160Z,0
2016-08-19T00:30:32.328Z,0
2016-08-19T00:30:56.451Z,0
2016-08-19T00:31:20.594Z,0
2016-08-19T00:31:44.711Z,0
2016-08-19T00:32:08.836Z,0
2016-08-19T00:32:32.935Z,0
2016-08-19T00:32:57.058Z,0
2016-08-19T00:33:21.188Z,0
2016-08-19T00:33:45.290Z,0
2016-08-19T00:34:09.422Z,0
2016-08-19T00:34:33.572Z,0
2016-08-19T00:34:57.688Z,0
2016-08-19T00:35:21.779Z,0
2016-08-19T00:35:45.912Z,0
2016-08-19T00:36:10.035Z,0
2016-08-19T00:36:34.175Z,0
2016-08-19T00:36:58.274Z,0
2016-08-19T00:37:22.372Z,0
2016-08-19T00:37:46.528Z,0
2016-08-19T00:38:10.643Z,0
2016-08-19T00:38:34.748Z,0
2016-08-19T00:38:58.881Z,0
2016-08-19T00:39:22.999Z,0
2016-08-19T00:39:47.138Z,0
2016-08-19T00:40:11.273Z,0
2016-08-19T00:40:35.381Z,0
2016-08-19T00:40:59.505Z,0
2016-08-19T00:41:23.628Z,0
2016-08-19T00:41:47.732Z,0
2016-08-19T00:42:11.853Z,0
2016-08-19T00:42:35.995Z,0
2016-08-19T00:43:00.119Z,0
2016-08-19T00:43:24.251Z,0
2016-08-19T00:43:48.332Z,0
2016-08-19T00:44:12.431Z,0
2016-08-19T00:44:36.542Z,0
2016-08-19T00:45:00.671Z,0
2016-08-19T00:45:24.781Z,0
2016-08-19T00:45:48.888Z,0
2016-08-19T00:46:12.993Z,0
2016-08-19T00:46:37.123Z,0
2016-08-19T00:47:01.245Z,0
2016-08-19T00:47:25.369Z,0
2016-08-19T00:47:49.544Z,0
2016-08-19T00:48:13.754Z,0
2016-08-19T00:48:37.886Z,0
2016-08-19T00:49:01.980Z,0
2016-08-19T00:49:26.153Z,0
2016-08-19T00:49:50.292Z,0
2016-08-19T00:50:14.397Z,0
2016-08-19T00:50:38.480Z,0
2016-08-19T00:51:02.622Z,0
2016-08-19T00:51:26.793Z,0
2016-08-19T00:51:50.947Z,0
2016-08-19T00:52:15.055Z,0
2016-08-19T00:52:39.215Z,0
2016-08-19T00:53:03.369Z,0
2016-08-19T00:53:27.491Z,0
2016-08-19T00:53:51.626Z,0
2016-08-19T00:54:15.767Z,0
2016-08-19T00:54:39.893Z,0
2016-08-19T00:55:04.059Z,0
2016-08-19T00:55:28.176Z,0
2016-08-19T00:55:52.274Z,0
2016-08-19T00:56:16.381Z,0
2016-08-19T00:56:40.528Z,0
2016-08-19T00:57:04.656Z,0
2016-08-19T00:57:28.757Z,0
2016-08-19T00:57:52.866Z,0
2016-08-19T00:58:16.981Z,0
2016-08-19T00:58:41.090Z,0
2016-08-19T00:59:05.220Z,0
2016-08-19T00:59:29.325Z,0
2016-08-19T00:59:53.443Z,0
2016-08-19T01:00:17.630Z,0
2016-08-19T01:00:41.766Z,0
2016-08-19T01:01:05.864Z,0
2016-08-19T01:01:29.983Z,0
2016-08-19T01:01:54.109Z,0
2016-08-19T01:02:18.251Z,0
2016-08-19T01:02:42.343Z,0
2016-08-19T01:03:06.498Z,0
2016-08-19T01:03:30.644Z,0
2016-08-19T01:03:54.783Z,0
2016-08-19T01:04:18.879Z,0
2016-08-19T01:04:43.001Z,0
2016-08-19T01:05:07.106Z,0
2016-08-19T01:05:31.231Z,0
2016-08-19T01:05:55.364Z,0
2016-08-19T01:06:19.477Z,0
2016-08-19T01:06:43.598Z,0
2016-08-19T01:07:07.693Z,0
2016-08-19T01:07:31.802Z,0
2016-08-19T01:07:55.920Z,0
2016-08-19T01:08:20.044Z,0
2016-08-19T01:08:44.170Z,0
2016-08-19T01:09:08.291Z,0
2016-08-19T01:09:32.402Z,0
2016-08-19T01:09:56.516Z,0
2016-08-19T01:10:20.641Z,0
2016-08-19T01:10:44.778Z,0
2016-08-19T01:11:08.884Z,0
2016-08-19T01:11:32.987Z,0
2016-08-19T01:11:57.104Z,0
2016-08-19T01:12:21.227Z,0
2016-08-19T01:12:45.360Z,0
2016-08-19T01:13:09.463Z,0
2016-08-19T01:13:33.619Z,0
2016-08-19T01:13:57.791Z,0
2016-08-19T01:14:21.934Z,0
2016-08-19T01:14:46.091Z,0
2016-08-19T01:15:10.184Z,0
2016-08-19T01:15:34.372Z,0
2016-08-19T01:15:58.485Z,0
2016-08-19T01:16:22.578Z,0
2016-08-19T01:16:46.788Z,0
2016-08-19T01:17:10.888Z,0
2016-08-19T01:17:35.025Z,0
2016-08-19T01:17:59.133Z,0
2016-08-19T01:18:23.241Z,0
2016-08-19T01:18:47.345Z,0
2016-08-19T01:19:11.537Z,0
2016-08-19T01:19:35.671Z,0
2016-08-19T01:19:59.767Z,0
2016-08-19T01:20:23.920Z,0
2016-08-19T01:20:48.063Z,0
2016-08-19T01:21:12.191Z,0
2016-08-19T01:21:36.316Z,0
2016-08-19T01:22:03.326Z,0
2016-08-19T01:22:27.429Z,0
2016-08-19T01:22:51.535Z,0
2016-08-19T01:23:15.636Z,0
2016-08-19T01:23:39.780Z,0
2016-08-19T01:24:03.906Z,0
2016-08-19T01:24:28.043Z,0
2016-08-19T01:24:52.166Z,0
2016-08-19T01:25:16.289Z,0
2016-08-19T01:25:40.437Z,0
2016-08-19T01:26:04.617Z,0
2016-08-19T01:26:28.788Z,0
2016-08-19T01:26:52.897Z,0
2016-08-19T01:27:17.030Z,0
2016-08-19T01:27:41.159Z,0
2016-08-19T01:28:05.272Z,0
2016-08-19T01:28:29.395Z,0
2016-08-19T01:28:53.526Z,0
2016-08-19T01:29:17.634Z,0
2016-08-19T01:29:41.758Z,0
2016-08-19T01:30:05.899Z,0
2016-08-19T01:30:30.022Z,0
2016-08-19T01:30:54.154Z,0
2016-08-19T01:31:18.278Z,0
2016-08-19T01:31:42.403Z,0
2016-08-19T01:32:06.541Z,0
2016-08-19T01:32:30.657Z,0
2016-08-19T01:32:54.763Z,0
2016-08-19T01:33:18.888Z,0
2016-08-19T01:33:42.988Z,0
2016-08-19T01:34:07.112Z,0
2016-08-19T01:34:31.207Z,0
2016-08-19T01:34:55.327Z,0
2016-08-19T01:35:19.448Z,0
2016-08-19T01:35:43.556Z,0
2016-08-19T01:36:07.688Z,0
2016-08-19T01:36:31.829Z,0
2016-08-19T01:36:55.965Z,0
2016-08-19T01:37:20.083Z,0
2016-08-19T01:37:44.200Z,0
2016-08-19T01:38:08.327Z,0
2016-08-19T01:38:32.447Z,0
2016-08-19T01:38:56.557Z,0
2016-08-19T01:39:20.678Z,0
2016-08-19T01:39:44.779Z,0
2016-08-19T01:40:08.915Z,0
2016-08-19T01:40:33.038Z,0
2016-08-19T01:40:57.168Z,0
2016-08-19T01:41:21.287Z,0
2016-08-19T01:41:45.412Z,0
2016-08-19T01:42:09.575Z,0
2016-08-19T01:42:33.685Z,0
2016-08-19T01:42:57.813Z,0
2016-08-19T01:43:21.956Z,0
2016-08-19T01:43:46.067Z,0
2016-08-19T01:44:10.184Z,0
2016-08-19T01:44:34.310Z,0
2016-08-19T01:44:58.418Z,0
2016-08-19T01:45:22.603Z,0
2016-08-19T01:45:46.738Z,0
2016-08-19T01:46:10.840Z,0
2016-08-19T01:46:34.933Z,0
2016-08-19T01:46:59.075Z,0
2016-08-19T01:47:23.257Z,0
2016-08-19T01:47:47.387Z,0
2016-08-19T01:48:11.504Z,0
2016-08-19T01:48:35.629Z,0
2016-08-19T01:48:59.738Z,0
2016-08-19T01:49:23.850Z,0
2016-08-19T01:49:47.959Z,0
2016-08-19T01:50:12.104Z,0
2016-08-19T01:50:36.292Z,0
2016-08-19T01:51:00.446Z,0
2016-08-19T01:51:24.560Z,0
2016-08-19T01:51:48.691Z,0
2016-08-19T01:52:12.793Z,0
2016-08-19T01:52:36.905Z,0
2016-08-19T01:53:01.018Z,0
2016-08-19T01:53:25.117Z,0
2016-08-19T01:53:49.268Z,0
2016-08-19T01:54:13.421Z,0
2016-08-19T01:54:37.550Z,0
2016-08-19T01:55:01.662Z,0
2016-08-19T01:55:25.768Z,0
2016-08-19T01:55:49.913Z,0
2016-08-19T01:56:14.026Z,0
2016-08-19T01:56:38.131Z,0
2016-08-19T01:57:02.233Z,0
2016-08-19T01:57:26.342Z,0
2016-08-19T01:57:50.455Z,0
2016-08-19T01:58:14.600Z,0
2016-08-19T01:58:38.714Z,0
2016-08-19T01:59:02.844Z,0
2016-08-19T01:59:26.966Z,0
2016-08-19T01:59:51.144Z,0
2016-08-19T02:00:15.278Z,0
2016-08-19T02:00:39.397Z,0
2016-08-19T02:01:03.503Z,0
2016-08-19T02:01:27.646Z,0
2016-08-19T02:01:51.784Z,0
2016-08-19T02:02:15.939Z,0
2016-08-19T02:02:40.041Z,0
2016-08-19T02:03:04.153Z,0
2016-08-19T02:03:28.283Z,0
2016-08-19T02:03:52.386Z,0
2016-08-19T02:04:16.498Z,0
2016-08-19T02:04:40.631Z,0
2016-08-19T02:05:04.738Z,0
2016-08-19T02:05:28.859Z,0
2016-08-19T02:05:52.987Z,0
2016-08-19T02:06:17.086Z,0
2016-08-19T02:06:41.251Z,0
2016-08-19T02:07:05.371Z,0
2016-08-19T02:07:29.496Z,0
2016-08-19T02:07:53.654Z,0
2016-08-19T02:08:17.813Z,0
2016-08-19T02:08:41.940Z,0
2016-08-19T02:09:06.089Z,0
2016-08-19T02:09:30.215Z,0
2016-08-19T02:09:54.376Z,0
2016-08-19T02:10:18.504Z,0
2016-08-19T02:10:42.609Z,0
2016-08-19T02:11:06.765Z,0
2016-08-19T02:11:30.872Z,0
2016-08-19T02:11:55.006Z,0
2016-08-19T02:12:19.109Z,0
2016-08-19T02:12:43.221Z,0
2016-08-19T02:13:07.345Z,0
2016-08-19T02:13:31.468Z,0
2016-08-19T02:13:55.571Z,0
2016-08-19T02:14:19.720Z,0
2016-08-19T02:14:43.864Z,0
2016-08-19T02:15:07.967Z,0
2016-08-19T02:15:32.096Z,0
2016-08-19T02:15:56.215Z,0
2016-08-19T02:16:20.363Z,0
2016-08-19T02:16:44.482Z,0
2016-08-19T02:17:08.602Z,0
2016-08-19T02:17:32.711Z,0
2016-08-19T02:17:56.837Z,0
2016-08-19T02:18:20.976Z,0
2016-08-19T02:18:45.102Z,0
2016-08-19T02:19:09.226Z,0
2016-08-19T02:19:33.377Z,0
2016-08-19T02:19:57.509Z,0
2016-08-19T02:20:21.676Z,0
2016-08-19T02:20:45.783Z,0
2016-08-19T02:21:09.907Z,0
2016-08-19T02:21:34.040Z,0
2016-08-19T02:21:58.176Z,0
2016-08-19T02:22:22.284Z,0
2016-08-19T02:22:46.445Z,0
2016-08-19T02:23:10.597Z,0
2016-08-19T02:23:34.739Z,0
2016-08-19T02:23:58.829Z,0
2016-08-19T02:24:22.933Z,0
2016-08-19T02:24:47.083Z,0
2016-08-19T02:25:11.254Z,0
2016-08-19T02:25:35.424Z,0
2016-08-19T02:25:59.520Z,0
2016-08-19T02:26:23.674Z,0
2016-08-19T02:26:47.874Z,0
2016-08-19T02:27:12.025Z,0
2016-08-19T02:27:36.132Z,0
2016-08-19T02:28:00.235Z,0
2016-08-19T02:28:24.352Z,0
2016-08-19T02:28:48.505Z,0
2016-08-19T02:29:12.625Z,0
2016-08-19T02:29:36.751Z,0
2016-08-19T02:30:00.880Z,0
2016-08-19T02:30:25.034Z,0
2016-08-19T02:30:49.147Z,0
2016-08-19T02:31:13.291Z,0
2016-08-19T02:31:37.400Z,0
2016-08-19T02:32:01.530Z,0
2016-08-19T02:32:25.650Z,0
2016-08-19T02:32:49.765Z,0
2016-08-19T02:33:13.909Z,0
2016-08-19T02:33:38.041Z,0
2016-08-19T02:34:02.152Z,0
2016-08-19T02:34:26.263Z,0
2016-08-19T02:34:50.428Z,0
2016-08-19T02:35:14.544Z,0
2016-08-19T02:35:38.698Z,0
2016-08-19T02:36:02.884Z,0
2016-08-19T02:36:27.008Z,0
2016-08-19T02:36:51.164Z,0
2016-08-19T02:37:15.274Z,0
2016-08-19T02:37:39.442Z,0
2016-08-19T02:38:03.558Z,0
2016-08-19T02:38:27.693Z,0
2016-08-19T02:38:51.866Z,0
2016-08-19T02:39:15.996Z,0
2016-08-19T02:39:40.111Z,0
2016-08-19T02:40:04.265Z,0
2016-08-19T02:40:28.426Z,0
2016-08-19T02:40:52.581Z,0
2016-08-19T02:41:16.704Z,0
2016-08-19T02:41:40.859Z,0
2016-08-19T02:42:05.012Z,0
2016-08-19T02:42:29.152Z,0
2016-08-19T02:42:53.265Z,0
2016-08-19T02:43:17.385Z,0
2016-08-19T02:43:41.492Z,0
2016-08-19T02:44:05.627Z,0
2016-08-19T02:44:29.771Z,0
2016-08-19T02:44:53.908Z,0
2016-08-19T02:45:18.066Z,0
2016-08-19T02:45:42.176Z,0
2016-08-19T02:46:06.329Z,0
2016-08-19T02:46:30.424Z,0
2016-08-19T02:46:54.533Z,0
2016-08-19T02:47:18.695Z,0
2016-08-19T02:47:42.816Z,0
2016-08-19T02:48:06.978Z,0
2016-08-19T02:48:31.089Z,0
2016-08-19T02:48:55.218Z,0
2016-08-19T02:49:19.360Z,0
2016-08-19T02:49:43.473Z,0
2016-08-19T02:50:07.617Z,0
2016-08-19T02:50:31.820Z,0
2016-08-19T02:50:55.994Z,0
2016-08-19T02:51:20.129Z,0
2016-08-19T02:51:44.249Z,0
2016-08-19T02:52:08.360Z,0
2016-08-19T02:52:32.523Z,0
2016-08-19T02:52:56.720Z,0
2016-08-19T02:53:20.891Z,0
2016-08-19T02:53:45.012Z,0
2016-08-19T02:54:09.144Z,0
2016-08-19T02:54:33.328Z,0
2016-08-19T02:54:57.430Z,0
2016-08-19T02:55:21.600Z,0
2016-08-19T02:55:45.778Z,0
2016-08-19T02:56:09.907Z,0
2016-08-19T02:56:34.014Z,0
2016-08-19T02:56:58.135Z,0
2016-08-19T02:57:22.301Z,0
2016-08-19T02:57:46.670Z,0
2016-08-19T02:58:10.825Z,0
2016-08-19T02:58:34.975Z,0
2016-08-19T02:58:59.113Z,0
2016-08-19T02:59:23.234Z,0
2016-08-19T02:59:47.404Z,0
2016-08-19T03:00:11.502Z,0
2016-08-19T03:00:35.630Z,0
2016-08-19T03:00:59.748Z,0
2016-08-19T03:01:23.873Z,0
2016-08-19T03:01:48.348Z,0
2016-08-19T03:02:12.496Z,0
2016-08-19T03:02:36.627Z,0
2016-08-19T03:03:00.762Z,0
2016-08-19T03:03:24.875Z,0
2016-08-19T03:03:48.990Z,0
2016-08-19T03:04:13.125Z,0
2016-08-19T03:04:37.257Z,0
2016-08-19T03:05:01.368Z,0
2016-08-19T03:05:25.485Z,0
2016-08-19T03:05:49.594Z,0
2016-08-19T03:06:13.718Z,0
2016-08-19T03:06:37.851Z,0
2016-08-19T03:07:02.011Z,0
2016-08-19T03:07:26.175Z,0
2016-08-19T03:07:50.297Z,0
2016-08-19T03:08:14.451Z,0
2016-08-19T03:08:38.560Z,0
2016-08-19T03:09:02.681Z,0
2016-08-19T03:09:26.810Z,0
2016-08-19T03:09:50.944Z,0
2016-08-19T03:10:15.055Z,0
2016-08-19T03:10:39.191Z,0
2016-08-19T03:11:03.346Z,0
2016-08-19T03:11:27.479Z,0
2016-08-19T03:11:51.640Z,0
2016-08-19T03:12:15.779Z,0
2016-08-19T03:12:39.907Z,0
2016-08-19T03:13:04.036Z,0
2016-08-19T03:13:28.158Z,0
2016-08-19T03:13:52.378Z,0
2016-08-19T03:14:16.526Z,0
2016-08-19T03:14:40.698Z,0
2016-08-19T03:15:04.815Z,0
2016-08-19T03:15:28.947Z,0
2016-08-19T03:15:53.077Z,0
2016-08-19T03:16:17.197Z,0
2016-08-19T03:16:41.311Z,0
2016-08-19T03:17:05.424Z,0
2016-08-19T03:17:29.546Z,0
2016-08-19T03:17:53.651Z,0
2016-08-19T03:18:17.761Z,0
2016-08-19T03:18:41.865Z,0
2016-08-19T03:19:05.987Z,0
2016-08-19T03:19:30.098Z,0
2016-08-19T03:19:54.188Z,0
2016-08-19T03:20:18.305Z,0
2016-08-19T03:20:42.440Z,0
2016-08-19T03:21:06.569Z,4
2016-08-19T03:21:30.693Z,4
2016-08-19T03:21:54.788Z,4
2016-08-19T03:22:18.929Z,4
2016-08-19T03:22:43.039Z,4
2016-08-19T03:23:07.154Z,4
2016-08-19T03:23:31.287Z,0
2016-08-19T03:23:55.415Z,0
2016-08-19T03:24:19.562Z,0
2016-08-19T03:24:43.724Z,4
2016-08-19T03:25:07.819Z,4
2016-08-19T03:25:31.959Z,4
2016-08-19T03:25:56.081Z,4
2016-08-19T03:26:20.230Z,4
2016-08-19T03:26:44.404Z,4
2016-08-19T03:27:08.539Z,4
2016-08-19T03:27:32.655Z,4
2016-08-19T03:27:56.756Z,4
2016-08-19T03:28:20.899Z,8
2016-08-19T03:28:45.036Z,4
2016-08-19T03:29:09.137Z,4
2016-08-19T03:29:33.258Z,8
2016-08-19T03:29:57.434Z,8
2016-08-19T03:30:21.597Z,8
2016-08-19T03:30:45.724Z,8
2016-08-19T03:31:09.825Z,8
2016-08-19T03:31:33.963Z,8
2016-08-19T03:31:58.078Z,12
2016-08-19T03:32:22.192Z,8
2016-08-19T03:32:46.296Z,12
2016-08-19T03:33:10.459Z,12
2016-08-19T03:33:34.596Z,12
2016-08-19T03:33:58.727Z,12
2016-08-19T03:34:22.839Z,16
2016-08-19T03:34:46.994Z,16
2016-08-19T03:35:11.125Z,16
2016-08-19T03:35:35.226Z,20
2016-08-19T03:35:59.327Z,20
2016-08-19T03:36:23.504Z,20
2016-08-19T03:36:47.630Z,20
2016-08-19T03:37:11.723Z,20
2016-08-19T03:37:35.850Z,24
2016-08-19T03:37:59.975Z,24
2016-08-19T03:38:24.086Z,28
2016-08-19T03:38:48.235Z,28
2016-08-19T03:39:12.338Z,32
2016-08-19T03:39:36.447Z,28
2016-08-19T03:40:00.606Z,32
2016-08-19T03:40:24.716Z,36
2016-08-19T03:40:48.876Z,36
2016-08-19T03:41:13.019Z,36
2016-08-19T03:41:37.190Z,40
2016-08-19T03:42:01.332Z,44
2016-08-19T03:42:25.474Z,48
2016-08-19T03:42:49.647Z,52
2016-08-19T03:43:13.784Z,52
2016-08-19T03:43:37.923Z,52
2016-08-19T03:44:02.057Z,60
2016-08-19T03:44:26.174Z,64
2016-08-19T03:44:50.419Z,64
2016-08-19T03:45:14.648Z,68
2016-08-19T03:45:38.740Z,72
2016-08-19T03:46:02.861Z,76
2016-08-19T03:46:26.959Z,80
2016-08-19T03:46:51.063Z,84
2016-08-19T03:47:15.203Z,88
2016-08-19T03:47:39.362Z,92
2016-08-19T03:48:03.482Z,96
2016-08-19T03:48:27.671Z,100
2016-08-19T03:48:51.797Z,104
2016-08-19T03:49:16.031Z,112
2016-08-19T03:49:40.165Z,116
2016-08-19T03:50:04.328Z,120
2016-08-19T03:50:28.543Z,124
2016-08-19T03:50:52.677Z,132
2016-08-19T03:51:16.815Z,140
2016-08-19T03:51:40.937Z,144
2016-08-19T03:52:05.062Z,152
2016-08-19T03:52:29.254Z,156
2016-08-19T03:52:53.370Z,164
2016-08-19T03:53:17.502Z,168
2016-08-19T03:53:41.736Z,176
2016-08-19T03:54:06.215Z,184
2016-08-19T03:54:30.374Z,196
2016-08-19T03:54:54.505Z,200
2016-08-19T03:55:18.636Z,208
2016-08-19T03:55:42.766Z,216
2016-08-19T03:56:06.884Z,220
2016-08-19T03:56:31.003Z,232
2016-08-19T03:56:55.113Z,236
2016-08-19T03:57:19.267Z,248
2016-08-19T03:57:43.400Z,256
2016-08-19T03:58:07.503Z,264
2016-08-19T03:58:31.667Z,272
2016-08-19T03:58:55.814Z,284
2016-08-19T03:59:19.979Z,292
2016-08-19T03:59:44.120Z,300
2016-08-19T04:00:08.250Z,308
2016-08-19T04:00:32.394Z,320
2016-08-19T04:00:56.529Z,328
2016-08-19T04:01:20.649Z,340
2016-08-19T04:01:44.778Z,352
2016-08-19T04:02:08.896Z,360
2016-08-19T04:02:33.014Z,372
2016-08-19T04:02:57.196Z,384
2016-08-19T04:03:21.323Z,392
2016-08-19T04:03:45.469Z,404
2016-08-19T04:04:09.681Z,420
2016-08-19T04:04:33.828Z,428
2016-08-19T04:04:58.042Z,440
2016-08-19T04:05:22.261Z,452
2016-08-19T04:05:46.443Z,464
2016-08-19T04:06:10.598Z,476
2016-08-19T04:06:34.719Z,488
2016-08-19T04:06:58.836Z,500
2016-08-19T04:07:22.992Z,516
2016-08-19T04:07:47.154Z,528
2016-08-19T04:08:11.314Z,540
2016-08-19T04:08:35.472Z,552
2016-08-19T04:08:59.602Z,568
2016-08-19T04:09:23.731Z,580
2016-08-19T04:09:47.884Z,592
2016-08-19T04:10:12.010Z,604
2016-08-19T04:10:36.142Z,620
2016-08-19T04:11:00.281Z,636
2016-08-19T04:11:24.417Z,648
2016-08-19T04:11:48.560Z,664
2016-08-19T04:12:12.744Z,676
2016-08-19T04:12:36.887Z,692
2016-08-19T04:13:00.993Z,704
2016-08-19T04:13:25.153Z,720
2016-08-19T04:13:49.320Z,732
2016-08-19T04:14:13.482Z,748
2016-08-19T04:14:37.601Z,760
2016-08-19T04:15:01.737Z,776
2016-08-19T04:15:25.875Z,792
2016-08-19T04:15:49.988Z,808
2016-08-19T04:16:14.176Z,824
2016-08-19T04:16:38.318Z,840
2016-08-19T04:17:02.466Z,856
2016-08-19T04:17:26.588Z,868
2016-08-19T04:17:50.725Z,884
2016-08-19T04:18:14.843Z,900
2016-08-19T04:18:38.964Z,920
2016-08-19T04:19:03.071Z,932
2016-08-19T04:19:27.196Z,948
2016-08-19T04:19:51.328Z,964
2016-08-19T04:20:15.468Z,980
2016-08-19T04:20:39.587Z,992
2016-08-19T04:21:03.727Z,1012
2016-08-19T04:21:27.845Z,1024
2016-08-19T04:21:51.980Z,1040
2016-08-19T04:22:16.178Z,1056
2016-08-19T04:22:40.274Z,1072
2016-08-19T04:23:04.369Z,1088
2016-08-19T04:23:28.494Z,1100
2016-08-19T04:23:52.638Z,1120
2016-08-19T04:24:16.758Z,1132
2016-08-19T04:24:40.917Z,1148
2016-08-19T04:25:05.086Z,1164
2016-08-19T04:25:29.215Z,1180
2016-08-19T04:25:53.344Z,1196
2016-08-19T04:26:17.577Z,1208
2016-08-19T04:26:41.717Z,1224
2016-08-19T04:27:06.030Z,1240
2016-08-19T04:27:30.156Z,1256
2016-08-19T04:27:54.306Z,1268
2016-08-19T04:28:18.553Z,1284
2016-08-19T04:28:42.663Z,1300
2016-08-19T04:29:06.759Z,1316
2016-08-19T04:29:30.891Z,1332
2016-08-19T04:29:55.018Z,1348
2016-08-19T04:30:19.149Z,1364
2016-08-19T04:30:43.245Z,1376
2016-08-19T04:31:07.454Z,1396
2016-08-19T04:31:31.622Z,1412
2016-08-19T04:31:55.744Z,1428
2016-08-19T04:32:19.846Z,1444
2016-08-19T04:32:43.964Z,1460
2016-08-19T04:33:08.095Z,1476
2016-08-19T04:33:32.239Z,1492
2016-08-19T04:33:56.414Z,1508
2016-08-19T04:34:20.526Z,1524
2016-08-19T04:34:44.647Z,1540
2016-08-19T04:35:08.748Z,1552
2016-08-19T04:35:32.847Z,1572
2016-08-19T04:35:56.978Z,1584
2016-08-19T04:36:21.124Z,1600
2016-08-19T04:36:45.243Z,1612
2016-08-19T04:37:09.394Z,1628
2016-08-19T04:37:33.517Z,1644
2016-08-19T04:37:57.711Z,1660
2016-08-19T04:38:21.814Z,1676
2016-08-19T04:38:45.958Z,1692
2016-08-19T04:39:10.074Z,1708
2016-08-19T04:39:34.196Z,1720
2016-08-19T04:39:58.319Z,1736
2016-08-19T04:40:22.482Z,1752
2016-08-19T04:40:46.598Z,1768
2016-08-19T04:41:10.716Z,1780
2016-08-19T04:41:34.832Z,1792
2016-08-19T04:41:59.013Z,1812
2016-08-19T04:42:23.115Z,1824
2016-08-19T04:42:47.247Z,1836
2016-08-19T04:43:11.385Z,1852
2016-08-19T04:43:35.509Z,1864
2016-08-19T04:43:59.632Z,1880
2016-08-19T04:44:23.874Z,1888
2016-08-19T04:44:48.032Z,1904
2016-08-19T04:45:12.182Z,1916
2016-08-19T04:45:36.378Z,1932
2016-08-19T04:46:00.515Z,1944
2016-08-19T04:46:24.644Z,1956
2016-08-19T04:46:48.787Z,1968
2016-08-19T04:47:12.992Z,1980
2016-08-19T04:47:37.160Z,1992
2016-08-19T04:48:01.353Z,2004
2016-08-19T04:48:25.515Z,2016
2016-08-19T04:48:49.632Z,2028
2016-08-19T04:49:13.756Z,2040
2016-08-19T04:49:37.914Z,2052
2016-08-19T04:50:02.067Z,2068
2016-08-19T04:50:26.192Z,2080
2016-08-19T04:50:50.305Z,2092
2016-08-19T04:51:14.438Z,2104
2016-08-19T04:51:38.630Z,2116
2016-08-19T04:52:02.738Z,2128
2016-08-19T04:52:26.886Z,2140
2016-08-19T04:52:50.993Z,2152
2016-08-19T04:53:15.119Z,2164
2016-08-19T04:53:39.256Z,2172
2016-08-19T04:54:03.409Z,2184
2016-08-19T04:54:27.565Z,2196
2016-08-19T04:54:51.721Z,2208
2016-08-19T04:55:15.849Z,2220
2016-08-19T04:55:39.973Z,2228
2016-08-19T04:56:04.186Z,2240
2016-08-19T04:56:28.310Z,2252
2016-08-19T04:56:52.435Z,2264
2016-08-19T04:57:16.622Z,2276
2016-08-19T04:57:40.763Z,2288
2016-08-19T04:58:04.893Z,2296
2016-08-19T04:58:29.031Z,2312
2016-08-19T04:58:53.155Z,2320
2016-08-19T04:59:17.279Z,2332
2016-08-19T04:59:41.442Z,2344
2016-08-19T05:00:05.579Z,2356
2016-08-19T05:00:29.714Z,2368
2016-08-19T05:00:53.863Z,2376
2016-08-19T05:01:17.985Z,2384
2016-08-19T05:01:42.099Z,2392
2016-08-19T05:02:06.222Z,2408
2016-08-19T05:02:30.334Z,2416
2016-08-19T05:02:54.434Z,2428
2016-08-19T05:03:18.541Z,2432
2016-08-19T05:03:42.730Z,2444
2016-08-19T05:04:06.886Z,2456
2016-08-19T05:04:31.011Z,2464
2016-08-19T05:04:55.130Z,2472
2016-08-19T05:05:19.262Z,2484
2016-08-19T05:05:43.458Z,2492
2016-08-19T05:06:07.591Z,2504
2016-08-19T05:06:31.735Z,2512
2016-08-19T05:06:55.861Z,2524
2016-08-19T05:07:20.026Z,2536
2016-08-19T05:07:44.361Z,2548
2016-08-19T05:08:08.653Z,2556
2016-08-19T05:08:32.802Z,2568
2016-08-19T05:08:56.962Z,2576
2016-08-19T05:09:21.101Z,2588
2016-08-19T05:09:45.194Z,2600
2016-08-19T05:10:09.322Z,2612
2016-08-19T05:10:33.459Z,2616
2016-08-19T05:10:57.578Z,2628
2016-08-19T05:11:21.709Z,2640
2016-08-19T05:11:45.866Z,2648
2016-08-19T05:12:10.023Z,2660
2016-08-19T05:12:34.165Z,2664
2016-08-19T05:12:58.302Z,2676
2016-08-19T05:13:22.430Z,2684
2016-08-19T05:13:46.538Z,2688
2016-08-19T05:14:10.657Z,2700
2016-08-19T05:14:34.753Z,2708
2016-08-19T05:14:58.859Z,2728
2016-08-19T05:15:22.985Z,2736
2016-08-19T05:15:47.133Z,2744
2016-08-19T05:16:11.272Z,2748
2016-08-19T05:16:35.402Z,2744
2016-08-19T05:16:59.551Z,2744
2016-08-19T05:17:23.691Z,2744
2016-08-19T05:17:47.865Z,2748
2016-08-19T05:18:11.980Z,2760
2016-08-19T05:18:36.108Z,2764
2016-08-19T05:19:00.249Z,2768
2016-08-19T05:19:24.380Z,2776
2016-08-19T05:19:48.491Z,2788
2016-08-19T05:20:12.626Z,2792
2016-08-19T05:20:36.770Z,2796
2016-08-19T05:21:00.862Z,2800
2016-08-19T05:21:25.007Z,2812
2016-08-19T05:21:49.169Z,2808
2016-08-19T05:22:13.322Z,2816
2016-08-19T05:22:37.414Z,2820
2016-08-19T05:23:01.523Z,2820
2016-08-19T05:23:25.669Z,2828
2016-08-19T05:23:49.806Z,2832
2016-08-19T05:24:13.908Z,2836
2016-08-19T05:24:38.044Z,2840
2016-08-19T05:25:02.214Z,2844
2016-08-19T05:25:26.401Z,2848
2016-08-19T05:25:50.480Z,2856
2016-08-19T05:26:14.673Z,2856
2016-08-19T05:26:38.818Z,2868
2016-08-19T05:27:02.967Z,2872
2016-08-19T05:27:27.089Z,2884
2016-08-19T05:27:51.271Z,2888
2016-08-19T05:28:15.388Z,2900
2016-08-19T05:28:39.498Z,2908
2016-08-19T05:29:03.626Z,2916
2016-08-19T05:29:27.738Z,2928
2016-08-19T05:29:51.843Z,2940
2016-08-19T05:30:15.992Z,2952
2016-08-19T05:30:40.127Z,2960
2016-08-19T05:31:04.270Z,2972
2016-08-19T05:31:28.389Z,2984
2016-08-19T05:31:52.544Z,2992
2016-08-19T05:32:16.665Z,3004
2016-08-19T05:32:40.824Z,3016
2016-08-19T05:33:05.236Z,3024
2016-08-19T05:33:29.361Z,3036
2016-08-19T05:33:53.531Z,3048
2016-08-19T05:34:17.684Z,3056
2016-08-19T05:34:41.818Z,3064
2016-08-19T05:35:05.957Z,3068
2016-08-19T05:35:30.125Z,3080
2016-08-19T05:35:54.281Z,3084
2016-08-19T05:36:18.467Z,3096
2016-08-19T05:36:42.587Z,3104
2016-08-19T05:37:06.709Z,3112
2016-08-19T05:37:30.892Z,3120
2016-08-19T05:37:55.008Z,3128
2016-08-19T05:38:19.140Z,3140
2016-08-19T05:38:43.263Z,3152
2016-08-19T05:39:07.387Z,3160
2016-08-19T05:39:31.503Z,3172
2016-08-19T05:39:55.602Z,3180
2016-08-19T05:40:19.728Z,3184
2016-08-19T05:40:43.840Z,3180
2016-08-19T05:41:07.995Z,3188
2016-08-19T05:41:32.133Z,3192
2016-08-19T05:41:56.281Z,3196
2016-08-19T05:42:20.425Z,3200
2016-08-19T05:42:44.594Z,3204
2016-08-19T05:43:08.730Z,3212
2016-08-19T05:43:32.856Z,3216
2016-08-19T05:43:57.024Z,3216
2016-08-19T05:44:21.250Z,3224
2016-08-19T05:44:45.354Z,3228